createdAt,value
2022-09-02T00:00:55.801Z,2.96
2022-09-02T00:06:04.786Z,2.95
2022-09-02T00:11:12.778Z,2.96
2022-09-02T00:16:20.786Z,2.96
2022-09-02T00:21:28.553Z,2.96
2022-09-02T00:26:36.424Z,2.96
2022-09-02T00:31:43.638Z,2.96
2022-09-02T00:36:52.469Z,2.95
2022-09-02T00:41:59.935Z,2.97
2022-09-02T00:47:09.120Z,2.96
2022-09-02T00:52:16.940Z,2.96
2022-09-02T00:57:25.890Z,2.96
2022-09-02T01:02:33.872Z,2.97
2022-09-02T01:07:41.269Z,2.96
2022-09-02T01:12:49.320Z,2.96
2022-09-02T01:17:56.107Z,2.95
2022-09-02T01:23:03.495Z,2.96
2022-09-02T01:28:11.539Z,2.95
2022-09-02T01:33:19.286Z,2.96
2022-09-02T01:38:26.312Z,2.96
2022-09-02T01:43:33.985Z,2.96
2022-09-02T01:48:42.076Z,2.95
2022-09-02T01:53:49.826Z,2.96
2022-09-02T01:58:58.698Z,2.95
2022-09-02T02:04:05.389Z,2.95
2022-09-02T02:09:13.255Z,2.96
2022-09-02T02:14:21.957Z,2.95
2022-09-02T02:19:31.308Z,2.94
2022-09-02T02:24:41.111Z,2.95
2022-09-02T02:29:49.110Z,2.96
2022-09-02T02:34:56.892Z,2.95
2022-09-02T02:40:05.585Z,2.95
2022-09-02T02:45:12.584Z,2.95
2022-09-02T02:50:20.423Z,2.96
2022-09-02T02:55:29.421Z,2.94
2022-09-02T03:00:37.428Z,2.95
2022-09-02T03:05:44.631Z,2.95
2022-09-02T03:10:52.371Z,2.95
2022-09-02T03:16:00.531Z,2.94
2022-09-02T03:21:08.414Z,2.94
2022-09-02T03:26:16.576Z,2.95
2022-09-02T03:31:23.778Z,2.95
2022-09-02T03:36:31.146Z,2.94
2022-09-02T03:41:39.431Z,2.94
2022-09-02T03:46:47.261Z,2.95
2022-09-02T03:51:59.653Z,2.94
2022-09-02T03:57:08.623Z,2.95
2022-09-02T04:02:17.133Z,2.93
2022-09-02T04:07:23.824Z,2.94
2022-09-02T04:12:32.435Z,2.94
2022-09-02T04:17:40.700Z,2.94
2022-09-02T04:22:48.940Z,2.94
2022-09-02T04:27:57.633Z,2.94
2022-09-02T04:33:04.257Z,2.94
2022-09-02T04:38:11.482Z,2.95
2022-09-02T04:43:19.946Z,2.94
2022-09-02T04:48:27.143Z,2.94
2022-09-02T04:53:38.974Z,2.95
2022-09-02T04:58:48.018Z,2.96
2022-09-02T05:03:56.955Z,2.98
2022-09-02T05:10:58.053Z,3.0
2022-09-02T05:16:03.460Z,3.0
2022-09-02T05:21:12.075Z,3.0
2022-09-02T05:26:20.830Z,3.0
2022-09-02T05:31:28.258Z,3.0
2022-09-02T05:36:36.554Z,3.0
2022-09-02T05:41:43.990Z,3.0
2022-09-02T05:46:52.626Z,3.0
2022-09-02T05:51:59.705Z,3.01
2022-09-02T05:57:07.809Z,3.0
2022-09-02T06:02:15.950Z,3.0
2022-09-02T06:07:23.131Z,3.01
2022-09-02T06:12:31.629Z,3.01
2022-09-02T06:17:38.862Z,3.01
2022-09-02T06:22:47.247Z,3.0
2022-09-02T06:27:55.939Z,3.02
2022-09-02T06:34:36.727Z,3.01
2022-09-02T06:39:42.342Z,3.01
2022-09-02T06:44:50.187Z,3.01
2022-09-02T06:49:58.661Z,3.01
2022-09-02T06:55:07.094Z,3.02
2022-09-02T07:00:14.931Z,3.02
2022-09-02T07:05:23.000Z,3.0
2022-09-02T07:10:30.850Z,3.01
2022-09-02T07:15:39.050Z,3.01
2022-09-02T07:20:47.497Z,3.01
2022-09-02T07:25:55.165Z,3.01
2022-09-02T07:31:02.787Z,3.0
2022-09-02T07:36:18.215Z,3.01
2022-09-02T07:41:27.675Z,3.0
2022-09-02T07:46:34.541Z,3.01
2022-09-02T07:51:42.343Z,3.01
2022-09-02T07:56:49.079Z,3.01
2022-09-02T08:01:55.515Z,3.0
2022-09-02T08:07:02.703Z,3.0
2022-09-02T08:12:10.825Z,3.01
2022-09-02T08:17:20.039Z,3.0
2022-09-02T08:22:27.556Z,3.0
2022-09-02T08:27:35.449Z,3.0
2022-09-02T08:32:43.980Z,3.01
2022-09-02T08:37:51.039Z,3.0
2022-09-02T08:42:59.388Z,3.01
2022-09-02T08:48:07.293Z,3.01
2022-09-02T08:53:14.679Z,3.01
2022-09-02T08:58:22.352Z,3.01
2022-09-02T09:03:30.444Z,3.0
2022-09-02T09:08:37.891Z,3.01
2022-09-02T09:13:45.149Z,3.01
2022-09-02T09:18:53.063Z,3.01
2022-09-02T09:24:00.262Z,3.0
2022-09-02T09:29:08.549Z,3.0
2022-09-02T09:34:15.661Z,3.01
2022-09-02T09:39:23.447Z,3.0
2022-09-02T09:44:30.995Z,3.0
2022-09-02T09:49:38.174Z,3.0
2022-09-02T09:54:45.377Z,3.01
2022-09-02T09:59:53.368Z,3.0
2022-09-02T10:05:01.053Z,3.0
2022-09-02T10:10:08.900Z,3.0
2022-09-02T10:15:16.714Z,3.0
2022-09-02T10:20:24.810Z,3.0
2022-09-02T10:25:31.740Z,3.01
2022-09-02T10:30:38.983Z,3.0
2022-09-02T10:35:46.198Z,3.01
2022-09-02T10:40:53.979Z,3.0
2022-09-02T10:46:02.072Z,3.0
2022-09-02T10:51:09.734Z,3.01
2022-09-02T10:56:16.860Z,3.0
2022-09-02T11:01:24.699Z,3.0
2022-09-02T11:06:31.438Z,3.0
2022-09-02T11:11:39.075Z,3.01
2022-09-02T11:16:47.447Z,3.0
2022-09-02T11:21:54.185Z,3.0
2022-09-02T11:27:00.729Z,3.01
2022-09-02T11:32:09.028Z,3.0
2022-09-02T11:37:17.560Z,3.0
2022-09-02T11:42:23.579Z,3.01
2022-09-02T11:47:31.485Z,3.01
2022-09-02T11:52:39.758Z,3.0
2022-09-02T11:57:46.465Z,3.0
2022-09-02T12:02:54.410Z,3.0
2022-09-02T12:08:00.856Z,3.01
2022-09-02T12:13:09.556Z,3.0
2022-09-02T12:18:16.610Z,3.01
2022-09-02T12:23:24.384Z,3.01
2022-09-02T12:28:31.783Z,3.01
2022-09-02T12:33:38.798Z,3.0
2022-09-02T12:38:47.374Z,3.01
2022-09-02T12:43:55.497Z,3.01
2022-09-02T12:49:03.860Z,3.0
2022-09-02T12:54:11.616Z,3.0
2022-09-02T12:59:19.419Z,3.0
2022-09-02T13:04:29.517Z,3.0
2022-09-02T13:09:36.861Z,3.0
2022-09-02T13:14:44.901Z,3.0
2022-09-02T13:19:51.984Z,3.0
2022-09-02T13:25:00.068Z,3.02
2022-09-02T13:30:07.761Z,3.01
2022-09-02T13:35:14.768Z,3.0
2022-09-02T13:40:21.589Z,3.0
2022-09-02T13:45:28.895Z,3.01
2022-09-02T13:50:37.533Z,3.01
2022-09-02T13:55:44.896Z,3.01
2022-09-02T14:00:53.371Z,3.0
2022-09-02T14:06:01.303Z,3.0
2022-09-02T14:11:08.336Z,3.0
2022-09-02T14:16:16.770Z,3.0
2022-09-02T14:21:25.847Z,3.01
2022-09-02T14:27:13.554Z,3.01
2022-09-02T14:32:22.124Z,3.0
2022-09-02T14:37:30.351Z,3.0
2022-09-02T14:42:38.119Z,3.01
2022-09-02T14:47:46.254Z,3.0
2022-09-02T14:52:54.070Z,3.01
2022-09-02T14:58:01.208Z,3.01
2022-09-02T15:03:07.762Z,3.01
2022-09-02T15:08:16.158Z,3.0
2022-09-02T15:13:24.027Z,3.01
2022-09-02T15:18:31.255Z,3.0
2022-09-02T15:23:39.062Z,3.01
2022-09-02T15:28:47.007Z,3.01
2022-09-02T15:33:54.877Z,3.01
2022-09-02T15:39:02.882Z,3.01
2022-09-02T15:44:11.093Z,3.0
2022-09-02T15:49:18.811Z,3.0
2022-09-02T15:54:27.063Z,2.99
2022-09-02T15:59:35.730Z,3.0
2022-09-02T16:04:44.122Z,3.0
2022-09-02T16:09:52.395Z,3.0
2022-09-02T16:15:06.656Z,3.0
2022-09-02T16:20:14.204Z,3.01
2022-09-02T16:25:21.540Z,2.99
2022-09-02T16:30:29.439Z,3.0
2022-09-02T16:35:36.731Z,3.0
2022-09-02T16:40:43.781Z,3.0
2022-09-02T16:45:51.966Z,2.98
2022-09-02T16:51:00.076Z,3.0
2022-09-02T16:56:08.330Z,2.99
2022-09-02T17:01:16.062Z,2.99
2022-09-02T17:06:23.541Z,3.0
2022-09-02T17:11:31.707Z,2.99
2022-09-02T17:16:39.326Z,2.98
2022-09-02T17:21:47.354Z,2.99
2022-09-02T17:32:09.869Z,2.99
2022-09-02T17:37:17.064Z,2.98
2022-09-02T17:42:24.864Z,2.98
2022-09-02T17:47:33.160Z,2.97
2022-09-02T17:52:40.581Z,3.0
2022-09-02T17:57:48.952Z,2.98
2022-09-02T18:02:56.322Z,2.99
2022-09-02T18:08:04.528Z,3.0
2022-09-02T18:13:12.764Z,2.98
2022-09-02T18:18:19.798Z,2.98
2022-09-02T18:23:26.951Z,2.98
2022-09-02T18:28:33.535Z,2.99
2022-09-02T18:33:41.505Z,2.97
2022-09-02T18:38:48.581Z,2.98
2022-09-02T18:43:58.500Z,2.98
2022-09-02T18:49:13.121Z,2.97
2022-09-02T18:54:20.731Z,2.97
2022-09-02T18:59:28.101Z,2.97
2022-09-02T19:04:35.483Z,2.97
2022-09-02T19:09:42.672Z,2.96
2022-09-02T19:14:50.605Z,2.97
2022-09-02T19:19:57.711Z,2.97
2022-09-02T19:25:05.871Z,2.97
2022-09-02T19:30:14.415Z,2.96
2022-09-02T19:35:22.670Z,2.98
2022-09-02T19:40:30.854Z,2.97
2022-09-02T19:45:39.341Z,2.96
2022-09-02T19:50:46.666Z,2.97
2022-09-02T19:55:53.865Z,2.97
2022-09-02T20:01:00.561Z,2.97
2022-09-02T20:06:09.291Z,2.97
2022-09-02T20:11:16.470Z,2.96
2022-09-02T20:16:23.346Z,2.97
2022-09-02T20:21:31.246Z,2.97
2022-09-02T20:26:38.391Z,2.96
2022-09-02T20:31:46.053Z,2.98
2022-09-02T20:36:53.412Z,2.96
2022-09-02T20:42:01.158Z,2.97
2022-09-02T20:47:08.422Z,2.96
2022-09-02T20:52:16.908Z,2.96
2022-09-02T20:57:24.166Z,2.97
2022-09-02T21:02:31.294Z,2.96
2022-09-02T21:07:38.497Z,2.97
2022-09-02T21:12:45.059Z,2.96
2022-09-02T21:17:53.553Z,2.97
2022-09-02T21:23:00.750Z,2.96
2022-09-02T21:28:07.948Z,2.97
2022-09-02T21:33:15.558Z,2.96
2022-09-02T21:38:22.344Z,2.97
2022-09-02T21:43:31.432Z,2.97
2022-09-02T21:48:38.842Z,2.96
2022-09-02T21:53:47.530Z,2.97
2022-09-02T21:58:55.371Z,2.97
2022-09-02T22:04:02.874Z,2.97
2022-09-02T22:09:10.020Z,2.96
2022-09-02T22:14:16.590Z,2.96
2022-09-02T22:19:24.420Z,2.96
2022-09-02T22:24:33.132Z,2.97
2022-09-02T22:29:41.353Z,2.96
2022-09-02T22:34:48.711Z,2.95
2022-09-02T22:39:57.147Z,2.96
2022-09-02T22:45:05.345Z,2.96
2022-09-02T22:50:13.782Z,2.96
2022-09-02T22:55:22.146Z,2.96
2022-09-02T23:00:29.109Z,2.96
2022-09-02T23:05:37.017Z,2.95
2022-09-02T23:10:44.305Z,2.96
2022-09-02T23:15:51.340Z,2.96
2022-09-02T23:20:59.146Z,2.96
2022-09-02T23:26:06.342Z,2.95
2022-09-02T23:31:15.320Z,2.95
2022-09-02T23:36:23.676Z,2.95
2022-09-02T23:41:31.865Z,2.95
2022-09-02T23:46:39.036Z,2.95
2022-09-02T23:51:46.786Z,2.96
2022-09-02T23:57:16.445Z,2.96
